Webcams

Webcam1&2         Webcam1 (Zeitraffer 2 Std.)        Webcam2 (Zeitraffer 2 Std.)

Webcam2 - Zeitraffer (die letzten zwei Stunden, Intervall: 10min)
cam2--20190217_130958M
cam2--20190217_131959M
cam2--20190217_132958M
cam2--20190217_133958M
cam2--20190217_134959M
cam2--20190217_135958M
cam2--20190217_140959M
cam2--20190217_141959M
cam2--20190217_142958M
cam2--20190217_143959M
cam2--20190217_144959M
cam2--20190217_145958M
cam2--20190217_150959M
01/13 
start stop bwd fwd

Webcam2 - Aktuell

Lokale Serverzeit 15:10 | 17.02.2019
Webcam-Lageplan

Webcam1&2        Webcam1 (Zeitraffer 2 Std.)        Webcam2 (Zeitraffer 2 Std.)

Webcam1 - Zeitraffer (die letzten zwei Stunden, Intervall: 10min)
cam1--20190217_131000M
cam1--20190217_131959M
cam1--20190217_132959M
cam1--20190217_134000M
cam1--20190217_135000M
cam1--20190217_135959M
cam1--20190217_141000M
cam1--20190217_141959M
cam1--20190217_143000M
cam1--20190217_144000M
cam1--20190217_145000M
cam1--20190217_145959M
cam1--20190217_151000M
01/13 
start stop bwd fwd

Webcam1 - Aktuell

Lokale Serverzeit 15:10 | 17.02.2019
Webcam-Lageplan

Flugwetter

[source: ADDS]
METAR
LOWL 171350Z 30003KT 270V330 CAVOK 11/00 Q1026 NOSIG =
TAF LOWL 171115Z 1712/1812 VRB02KT CAVOK TX09/1714Z TNM03/1805Z TEMPO 1800/1809 4000 BR SCT003 PROB30 TEMPO 1804/1808 0300 FZBCFG BKN002
TAF
TAF LOWL 171115Z 1712/1812 VRB02KT CAVOK TX09/1714Z TNM03/1805Z TEMPO 1800/1809 4000 BR SCT003 PROB30 TEMPO 1804/1808 0300 FZBCFG BKN002 =